Time;durP1;ratioP1;P1;durP2;ratioP2;P2;SDS_P1;SDS_P2;PMS_P1;PMS_P2;Temp;Humidity;BMP_temperature;BMP_pressure;BME280_temperature;BME280_humidity;BME280_pressure;Samples;Min_cycle;Max_cycle;Signal;HPM_P1;HPM_P2
2023/02/26 00:00:16;;;;;;;7.47;3.03;;;;;;;;;;511938;28;1529;-76
2023/02/26 00:00:31;;;;;;;7.03;3.00;;;;;;;;;;513944;28;1261;-76
2023/02/26 00:00:46;;;;;;;7.00;3.00;;;;;;;;;;512058;28;1456;-77
2023/02/26 00:01:11;;;;;;;7.27;3.10;;;;;;;;;;516885;28;1295;-77
2023/02/26 00:01:31;;;;;;;7.32;3.00;;;;;;;;;;515187;28;1580;-76
2023/02/26 00:01:48;;;;;;;7.03;3.10;;;;;;;;;;514913;28;1657;-76
2023/02/26 00:02:04;;;;;;;6.82;3.10;;;;;;;;;;518801;28;1453;-75
2023/02/26 00:02:19;;;;;;;7.10;3.10;;;;;;;;;;518326;28;1070;-75
2023/02/26 00:02:35;;;;;;;6.93;3.03;;;;;;;;;;519825;28;1393;-75
2023/02/26 00:02:50;;;;;;;7.35;3.15;;;;;;;;;;518975;28;1445;-75
2023/02/26 00:03:06;;;;;;;9.02;3.30;;;;;;;;;;520172;28;1734;-75
2023/02/26 00:03:21;;;;;;;7.20;3.23;;;;;;;;;;521314;28;1119;-75
2023/02/26 00:03:36;;;;;;;5.80;3.20;;;;;;;;;;518218;28;1339;-75
2023/02/26 00:03:54;;;;;;;5.43;3.10;;;;;;;;;;520631;28;1380;-75
2023/02/26 00:04:10;;;;;;;6.78;3.00;;;;;;;;;;523865;28;1430;-76
2023/02/26 00:04:25;;;;;;;8.43;3.00;;;;;;;;;;522325;28;1403;-76
2023/02/26 00:04:41;;;;;;;8.20;3.22;;;;;;;;;;520908;28;1474;-77
2023/02/26 00:04:56;;;;;;;7.30;3.20;;;;;;;;;;519273;28;1289;-77
2023/02/26 00:05:12;;;;;;;6.57;3.17;;;;;;;;;;518816;28;1376;-76
2023/02/26 00:05:27;;;;;;;6.57;3.13;;;;;;;;;;520803;28;1341;-76
2023/02/26 00:05:43;;;;;;;7.87;3.40;;;;;;;;;;518067;28;1416;-76
2023/02/26 00:06:00;;;;;;;8.40;3.50;;;;;;;;;;519720;28;1458;-76
2023/02/26 00:06:15;;;;;;;7.22;3.20;;;;;;;;;;517657;28;2634;-77
2023/02/26 00:06:36;;;;;;;6.40;3.17;;;;;;;;;;520419;28;1914;-76
2023/02/26 00:06:52;;;;;;;6.90;3.38;;;;;;;;;;520660;28;1262;-76
2023/02/26 00:07:07;;;;;;;7.32;3.47;;;;;;;;;;517911;28;1492;-77
2023/02/26 00:07:22;;;;;;;6.67;3.30;;;;;;;;;;519670;28;1475;-76
2023/02/26 00:07:38;;;;;;;7.50;3.30;;;;;;;;;;517543;28;1373;-76
2023/02/26 00:07:54;;;;;;;7.68;3.60;;;;;;;;;;519243;28;1774;-76
2023/02/26 00:08:09;;;;;;;7.53;3.58;;;;;;;;;;519010;28;1304;-76
2023/02/26 00:08:24;;;;;;;7.80;3.40;;;;;;;;;;519953;28;1419;-76
2023/02/26 00:08:40;;;;;;;7.57;3.20;;;;;;;;;;521452;28;1329;-76
2023/02/26 00:08:55;;;;;;;7.88;3.30;;;;;;;;;;518017;28;1340;-76
2023/02/26 00:09:11;;;;;;;7.67;3.30;;;;;;;;;;519677;28;1368;-76
2023/02/26 00:09:26;;;;;;;7.82;3.30;;;;;;;;;;519125;28;1761;-75
2023/02/26 00:09:42;;;;;;;9.37;3.43;;;;;;;;;;515825;28;1361;-76
2023/02/26 00:09:57;;;;;;;8.52;3.38;;;;;;;;;;516951;28;1314;-76
2023/02/26 00:10:15;;;;;;;6.83;3.20;;;;;;;;;;516919;28;1404;-76
2023/02/26 00:10:31;;;;;;;7.50;3.30;;;;;;;;;;519961;28;1374;-76
2023/02/26 00:10:47;;;;;;;8.13;3.25;;;;;;;;;;515591;28;1419;-76
2023/02/26 00:11:06;;;;;;;6.57;3.10;;;;;;;;;;515885;28;1485;-76
2023/02/26 00:11:21;;;;;;;7.35;3.05;;;;;;;;;;517396;28;1351;-76
2023/02/26 00:11:37;;;;;;;8.40;3.10;;;;;;;;;;515924;28;1354;-76
2023/02/26 00:11:52;;;;;;;6.50;3.00;;;;;;;;;;516862;28;1281;-76
2023/02/26 00:12:11;;;;;;;6.55;3.10;;;;;;;;;;516223;28;1492;-76
2023/02/26 00:12:27;;;;;;;8.25;3.40;;;;;;;;;;519137;28;1674;-75
2023/02/26 00:12:43;;;;;;;7.47;3.28;;;;;;;;;;519577;28;1539;-75
2023/02/26 00:12:58;;;;;;;6.47;3.10;;;;;;;;;;519408;28;1369;-75
2023/02/26 00:13:14;;;;;;;7.00;3.13;;;;;;;;;;522842;28;1472;-75
2023/02/26 00:13:29;;;;;;;7.80;3.03;;;;;;;;;;520526;28;1355;-75
2023/02/26 00:13:45;;;;;;;7.13;3.17;;;;;;;;;;522908;28;1409;-76
2023/02/26 00:14:01;;;;;;;7.00;3.40;;;;;;;;;;519235;28;1454;-74
2023/02/26 00:14:17;;;;;;;6.90;3.07;;;;;;;;;;519517;28;1770;-74
2023/02/26 00:14:32;;;;;;;6.43;2.92;;;;;;;;;;519928;28;1389;-77
2023/02/26 00:14:48;;;;;;;6.40;3.00;;;;;;;;;;519380;28;1407;-77
2023/02/26 00:15:05;;;;;;;8.02;3.20;;;;;;;;;;519600;28;1368;-77
2023/02/26 00:15:20;;;;;;;7.43;3.17;;;;;;;;;;515876;28;1248;-77
2023/02/26 00:15:36;;;;;;;6.85;3.08;;;;;;;;;;519458;28;1395;-76
2023/02/26 00:15:57;;;;;;;6.90;3.03;;;;;;;;;;521717;28;1463;-74
2023/02/26 00:16:31;;;;;;;7.18;3.17;;;;;;;;;;518759;28;1264;-76
2023/02/26 00:16:55;;;;;;;7.05;2.95;;;;;;;;;;520275;28;1400;-75
2023/02/26 00:17:25;;;;;;;6.90;3.17;;;;;;;;;;518860;28;1490;-75
2023/02/26 00:17:50;;;;;;;6.45;3.08;;;;;;;;;;517052;28;1673;-75
2023/02/26 00:18:11;;;;;;;5.80;2.60;;;;;;;;;;519870;28;1300;-75
2023/02/26 00:18:27;;;;;;;7.00;3.17;;;;;;;;;;519005;28;1471;-76
2023/02/26 00:18:42;;;;;;;6.90;3.30;;;;;;;;;;516879;28;1429;-76
2023/02/26 00:19:00;;;;;;;6.00;3.00;;;;;;;;;;520181;28;1493;-75
2023/02/26 00:19:16;;;;;;;6.38;3.00;;;;;;;;;;517436;28;1935;-75
2023/02/26 00:19:31;;;;;;;6.82;3.25;;;;;;;;;;517599;28;1452;-75
2023/02/26 00:19:47;;;;;;;5.83;2.97;;;;;;;;;;515366;28;1437;-75
2023/02/26 00:20:03;;;;;;;5.78;2.97;;;;;;;;;;515052;28;1283;-75
2023/02/26 00:20:19;;;;;;;6.35;3.10;;;;;;;;;;513044;28;1476;-75
2023/02/26 00:20:36;;;;;;;5.97;3.00;;;;;;;;;;519274;28;1543;-77
2023/02/26 00:20:52;;;;;;;7.05;3.20;;;;;;;;;;517227;28;1755;-75
2023/02/26 00:21:13;;;;;;;8.35;3.30;;;;;;;;;;516349;28;1426;-75
2023/02/26 00:21:29;;;;;;;6.88;3.20;;;;;;;;;;517023;28;1405;-75
2023/02/26 00:21:45;;;;;;;6.00;3.00;;;;;;;;;;519805;28;1463;-75
2023/02/26 00:22:01;;;;;;;6.30;3.00;;;;;;;;;;521819;28;1519;-75
2023/02/26 00:22:16;;;;;;;6.05;2.97;;;;;;;;;;518444;28;1857;-75
2023/02/26 00:22:32;;;;;;;6.32;2.92;;;;;;;;;;521497;28;1474;-76
2023/02/26 00:22:48;;;;;;;6.25;2.85;;;;;;;;;;521561;28;1474;-76
2023/02/26 00:23:03;;;;;;;6.67;2.90;;;;;;;;;;519319;28;1307;-76
2023/02/26 00:23:19;;;;;;;6.70;2.90;;;;;;;;;;520270;28;1392;-75
2023/02/26 00:23:34;;;;;;;5.30;2.83;;;;;;;;;;516965;28;1570;-75
2023/02/26 00:23:50;;;;;;;6.27;3.00;;;;;;;;;;519118;28;1424;-75
2023/02/26 00:24:07;;;;;;;6.35;3.20;;;;;;;;;;519903;28;2048;-75
2023/02/26 00:24:22;;;;;;;6.25;3.17;;;;;;;;;;518289;28;1308;-75
2023/02/26 00:24:37;;;;;;;6.65;3.17;;;;;;;;;;517130;28;1247;-76
2023/02/26 00:24:53;;;;;;;6.40;3.17;;;;;;;;;;517195;28;1282;-77
2023/02/26 00:25:09;;;;;;;6.53;3.17;;;;;;;;;;519450;28;1499;-76
2023/02/26 00:25:24;;;;;;;7.47;3.30;;;;;;;;;;519023;28;1301;-76
2023/02/26 00:25:40;;;;;;;7.90;3.33;;;;;;;;;;519437;28;1667;-76
2023/02/26 00:25:57;;;;;;;7.15;3.17;;;;;;;;;;521645;28;1501;-76
2023/02/26 00:26:12;;;;;;;6.82;2.88;;;;;;;;;;521179;28;1482;-76
2023/02/26 00:26:29;;;;;;;7.43;3.10;;;;;;;;;;517063;28;1507;-76
2023/02/26 00:26:45;;;;;;;7.70;2.97;;;;;;;;;;519616;28;1366;-76
2023/02/26 00:27:00;;;;;;;6.75;2.92;;;;;;;;;;518835;28;1615;-76
2023/02/26 00:27:15;;;;;;;7.23;3.20;;;;;;;;;;518286;28;2057;-76
2023/02/26 00:27:31;;;;;;;7.30;3.10;;;;;;;;;;517656;28;1268;-76
2023/02/26 00:27:46;;;;;;;6.72;3.08;;;;;;;;;;520160;28;1261;-76
2023/02/26 00:28:02;;;;;;;8.38;3.10;;;;;;;;;;522147;28;1319;-76
2023/02/26 00:28:18;;;;;;;8.73;2.97;;;;;;;;;;522398;28;1465;-76
2023/02/26 00:28:34;;;;;;;7.63;3.00;;;;;;;;;;519650;28;1304;-75
2023/02/26 00:28:49;;;;;;;7.80;3.00;;;;;;;;;;516282;28;1640;-76
2023/02/26 00:29:05;;;;;;;8.30;2.97;;;;;;;;;;519873;28;1324;-76
2023/02/26 00:29:20;;;;;;;7.77;3.33;;;;;;;;;;514651;28;1441;-76
2023/02/26 00:29:36;;;;;;;6.78;3.22;;;;;;;;;;518167;28;1432;-76
2023/02/26 00:29:52;;;;;;;6.70;3.00;;;;;;;;;;518666;28;1423;-76
2023/02/26 00:30:08;;;;;;;7.50;3.30;;;;;;;;;;517588;28;1413;-76
2023/02/26 00:30:23;;;;;;;7.03;3.22;;;;;;;;;;516474;28;1723;-76
2023/02/26 00:30:39;;;;;;;6.82;3.00;;;;;;;;;;515909;28;1345;-75
2023/02/26 00:30:55;;;;;;;6.80;3.10;;;;;;;;;;517359;28;1471;-76
2023/02/26 00:31:13;;;;;;;6.13;2.97;;;;;;;;;;516572;28;1528;-76
2023/02/26 00:31:28;;;;;;;7.88;2.92;;;;;;;;;;516194;28;1428;-76
2023/02/26 00:31:44;;;;;;;8.02;3.10;;;;;;;;;;517199;28;1397;-75
2023/02/26 00:32:00;;;;;;;6.78;3.17;;;;;;;;;;517559;28;1788;-75
2023/02/26 00:32:16;;;;;;;7.83;3.47;;;;;;;;;;516747;28;1277;-76
2023/02/26 00:32:33;;;;;;;7.18;3.35;;;;;;;;;;516078;28;2255;-76
2023/02/26 00:32:48;;;;;;;6.38;3.22;;;;;;;;;;516136;28;1429;-76
2023/02/26 00:33:04;;;;;;;6.57;3.17;;;;;;;;;;514868;28;1242;-75
2023/02/26 00:33:20;;;;;;;6.97;3.30;;;;;;;;;;513205;28;1571;-77
2023/02/26 00:33:35;;;;;;;8.05;3.40;;;;;;;;;;512615;28;1222;-76
2023/02/26 00:33:55;;;;;;;7.33;3.30;;;;;;;;;;511035;28;1490;-76
2023/02/26 00:34:12;;;;;;;7.35;3.35;;;;;;;;;;513223;28;1588;-76
2023/02/26 00:34:27;;;;;;;7.32;3.22;;;;;;;;;;513167;28;1484;-76
2023/02/26 00:34:45;;;;;;;6.20;2.90;;;;;;;;;;513761;28;1240;-76
2023/02/26 00:35:01;;;;;;;5.68;3.00;;;;;;;;;;514838;28;1501;-76
2023/02/26 00:35:16;;;;;;;6.15;3.05;;;;;;;;;;511625;28;1267;-76
2023/02/26 00:35:32;;;;;;;6.17;3.10;;;;;;;;;;513446;28;1339;-76
2023/02/26 00:35:51;;;;;;;6.35;3.13;;;;;;;;;;515844;28;1231;-76
2023/02/26 00:36:27;;;;;;;6.95;3.10;;;;;;;;;;517109;28;1586;-76
2023/02/26 00:37:09;;;;;;;7.15;3.20;;;;;;;;;;515509;28;1395;-76
2023/02/26 00:37:56;;;;;;;6.05;3.03;;;;;;;;;;519449;28;1381;-76
2023/02/26 00:38:15;;;;;;;6.25;2.90;;;;;;;;;;520943;28;1157;-76
2023/02/26 00:38:33;;;;;;;6.45;3.05;;;;;;;;;;520085;28;1581;-76
2023/02/26 00:39:25;;;;;;;6.38;2.95;;;;;;;;;;519991;28;1545;-75
2023/02/26 00:39:49;;;;;;;7.45;3.03;;;;;;;;;;517510;28;1385;-76
2023/02/26 00:40:33;;;;;;;6.93;3.17;;;;;;;;;;518242;28;1367;-77
2023/02/26 00:40:52;;;;;;;6.55;3.00;;;;;;;;;;515283;28;1291;-75
2023/02/26 00:41:08;;;;;;;6.72;3.10;;;;;;;;;;518471;28;1289;-76
2023/02/26 00:41:23;;;;;;;5.73;2.97;;;;;;;;;;517340;28;1210;-75
2023/02/26 00:41:39;;;;;;;6.15;3.00;;;;;;;;;;514957;28;1422;-76
2023/02/26 00:41:55;;;;;;;8.40;3.30;;;;;;;;;;516141;28;1579;-75
2023/02/26 00:42:11;;;;;;;9.03;3.47;;;;;;;;;;516573;28;1239;-75
2023/02/26 00:42:26;;;;;;;8.02;3.30;;;;;;;;;;517864;28;1142;-76
2023/02/26 00:42:42;;;;;;;7.47;3.00;;;;;;;;;;516040;28;1309;-75
2023/02/26 00:42:57;;;;;;;8.05;3.05;;;;;;;;;;517470;28;1376;-76
2023/02/26 00:43:21;;;;;;;7.77;3.10;;;;;;;;;;518321;28;1448;-76
2023/02/26 00:43:36;;;;;;;7.97;3.10;;;;;;;;;;517285;28;1378;-75
2023/02/26 00:43:52;;;;;;;7.63;3.20;;;;;;;;;;519147;28;1187;-75
2023/02/26 00:44:07;;;;;;;7.28;3.20;;;;;;;;;;517041;28;1244;-76
2023/02/26 00:44:23;;;;;;;6.63;2.92;;;;;;;;;;516730;28;1240;-76
2023/02/26 00:44:39;;;;;;;7.20;3.07;;;;;;;;;;514613;28;1221;-76
2023/02/26 00:44:55;;;;;;;7.65;3.17;;;;;;;;;;513937;28;1407;-75
2023/02/26 00:45:12;;;;;;;7.00;3.00;;;;;;;;;;514306;28;1134;-75
2023/02/26 00:45:28;;;;;;;6.28;2.90;;;;;;;;;;512987;28;1463;-76
2023/02/26 00:46:02;;;;;;;5.78;2.78;;;;;;;;;;516807;28;1423;-76
2023/02/26 00:46:47;;;;;;;6.60;2.83;;;;;;;;;;517633;28;1583;-75
2023/02/26 00:47:07;;;;;;;5.93;2.75;;;;;;;;;;518865;28;1338;-75
2023/02/26 00:47:55;;;;;;;7.68;2.90;;;;;;;;;;518265;28;1351;-75
2023/02/26 00:48:52;;;;;;;6.68;3.00;;;;;;;;;;510228;28;1374;-75
2023/02/26 00:49:22;;;;;;;8.15;2.97;;;;;;;;;;510963;28;1382;-75
2023/02/26 00:49:59;;;;;;;6.25;2.72;;;;;;;;;;518633;28;1564;-77
2023/02/26 00:50:18;;;;;;;6.07;2.80;;;;;;;;;;518778;28;1526;-75
2023/02/26 00:50:35;;;;;;;6.15;2.85;;;;;;;;;;518865;28;1169;-77
2023/02/26 00:51:13;;;;;;;7.97;3.13;;;;;;;;;;517693;28;1052;-75
2023/02/26 00:51:31;;;;;;;7.75;3.05;;;;;;;;;;512065;28;1292;-75
2023/02/26 00:51:51;;;;;;;8.60;3.13;;;;;;;;;;519509;28;1492;-75
2023/02/26 00:52:14;;;;;;;7.63;3.08;;;;;;;;;;518309;28;1577;-76
2023/02/26 00:52:42;;;;;;;6.47;2.83;;;;;;;;;;519416;28;1328;-75
2023/02/26 00:52:58;;;;;;;6.40;2.78;;;;;;;;;;518866;28;1136;-75
2023/02/26 00:53:23;;;;;;;6.47;2.90;;;;;;;;;;519584;28;1250;-75
2023/02/26 00:53:48;;;;;;;7.43;3.03;;;;;;;;;;521996;28;1254;-76
2023/02/26 00:54:07;;;;;;;7.10;3.03;;;;;;;;;;518993;28;1381;-76
2023/02/26 00:54:26;;;;;;;7.25;2.90;;;;;;;;;;520506;28;1306;-76
2023/02/26 00:54:41;;;;;;;6.82;2.90;;;;;;;;;;518401;28;1504;-76
2023/02/26 00:54:56;;;;;;;7.13;3.00;;;;;;;;;;517417;28;1508;-76
2023/02/26 00:55:12;;;;;;;8.27;3.30;;;;;;;;;;515399;28;1207;-76
2023/02/26 00:55:27;;;;;;;8.97;3.33;;;;;;;;;;515029;28;1430;-77
2023/02/26 00:55:43;;;;;;;7.43;3.10;;;;;;;;;;516353;28;1302;-76
2023/02/26 00:55:58;;;;;;;7.23;3.10;;;;;;;;;;518638;28;1171;-74
2023/02/26 00:56:14;;;;;;;7.50;3.10;;;;;;;;;;518498;28;1395;-74
2023/02/26 00:56:29;;;;;;;6.37;2.87;;;;;;;;;;518942;28;1200;-74
2023/02/26 00:56:44;;;;;;;6.30;2.80;;;;;;;;;;520000;28;1322;-75
2023/02/26 00:57:00;;;;;;;6.55;2.92;;;;;;;;;;516496;28;1137;-75
2023/02/26 00:57:15;;;;;;;6.43;3.00;;;;;;;;;;518051;28;1232;-74
2023/02/26 00:57:30;;;;;;;6.57;3.00;;;;;;;;;;517084;28;1257;-75
2023/02/26 00:57:46;;;;;;;6.47;3.00;;;;;;;;;;519389;28;1160;-74
2023/02/26 00:58:01;;;;;;;5.73;2.80;;;;;;;;;;519512;28;1428;-75
2023/02/26 00:58:16;;;;;;;6.30;2.75;;;;;;;;;;519171;28;1466;-74
2023/02/26 00:58:32;;;;;;;8.40;2.97;;;;;;;;;;518376;28;1430;-75
2023/02/26 00:58:47;;;;;;;8.00;3.07;;;;;;;;;;519250;28;1320;-75
2023/02/26 00:59:02;;;;;;;6.38;2.92;;;;;;;;;;517893;28;1275;-74
2023/02/26 00:59:19;;;;;;;6.10;2.80;;;;;;;;;;519571;28;1244;-74
2023/02/26 00:59:34;;;;;;;5.93;2.70;;;;;;;;;;518731;28;1247;-74
2023/02/26 00:59:50;;;;;;;6.50;2.80;;;;;;;;;;516694;28;1180;-74
2023/02/26 01:00:06;;;;;;;6.53;3.00;;;;;;;;;;517967;28;1406;-75
2023/02/26 01:00:22;;;;;;;6.63;2.95;;;;;;;;;;517168;28;1196;-74
2023/02/26 01:00:37;;;;;;;6.25;2.90;;;;;;;;;;514743;28;1272;-75
2023/02/26 01:00:53;;;;;;;7.00;2.93;;;;;;;;;;517040;28;1276;-75
2023/02/26 01:01:08;;;;;;;7.25;2.95;;;;;;;;;;516693;28;1475;-75
2023/02/26 01:01:23;;;;;;;6.60;2.80;;;;;;;;;;518724;28;1335;-75
2023/02/26 01:01:39;;;;;;;6.50;2.80;;;;;;;;;;513977;28;1261;-75
2023/02/26 01:01:54;;;;;;;6.88;2.83;;;;;;;;;;515844;28;1164;-76
2023/02/26 01:02:09;;;;;;;6.67;2.90;;;;;;;;;;516197;28;1110;-75
2023/02/26 01:02:25;;;;;;;5.82;2.85;;;;;;;;;;514629;28;1764;-75
2023/02/26 01:02:41;;;;;;;6.25;2.88;;;;;;;;;;517724;28;1389;-75
2023/02/26 01:02:57;;;;;;;7.20;3.10;;;;;;;;;;514361;28;1298;-75
2023/02/26 01:03:13;;;;;;;8.10;3.13;;;;;;;;;;515558;28;1249;-74
2023/02/26 01:03:30;;;;;;;7.30;3.08;;;;;;;;;;515676;28;1040;-75
2023/02/26 01:03:46;;;;;;;6.57;2.97;;;;;;;;;;518368;28;1187;-75
2023/02/26 01:04:02;;;;;;;6.63;2.83;;;;;;;;;;518700;28;1197;-74
2023/02/26 01:04:20;;;;;;;7.05;2.95;;;;;;;;;;519373;28;1151;-74
2023/02/26 01:04:36;;;;;;;7.85;2.95;;;;;;;;;;517329;28;1355;-77
2023/02/26 01:04:51;;;;;;;6.03;2.78;;;;;;;;;;517972;28;1379;-76
2023/02/26 01:05:08;;;;;;;5.55;2.63;;;;;;;;;;518534;28;1342;-76
2023/02/26 01:05:24;;;;;;;5.90;2.60;;;;;;;;;;519019;28;1471;-76
2023/02/26 01:05:39;;;;;;;6.10;2.60;;;;;;;;;;517505;28;1270;-77
2023/02/26 01:05:55;;;;;;;6.05;2.65;;;;;;;;;;514298;28;1322;-76
2023/02/26 01:06:15;;;;;;;6.57;2.70;;;;;;;;;;516317;28;1167;-76
2023/02/26 01:06:33;;;;;;;6.80;2.65;;;;;;;;;;517107;28;1925;-76
2023/02/26 01:06:54;;;;;;;7.45;2.83;;;;;;;;;;517741;28;1255;-76
2023/02/26 01:07:09;;;;;;;6.55;2.70;;;;;;;;;;514575;28;1573;-76
2023/02/26 01:07:27;;;;;;;6.07;2.70;;;;;;;;;;518462;28;1394;-77
2023/02/26 01:08:09;;;;;;;5.72;2.67;;;;;;;;;;518742;28;1301;-75
2023/02/26 01:08:33;;;;;;;6.90;2.95;;;;;;;;;;519307;28;1310;-76
2023/02/26 01:09:06;;;;;;;7.20;2.75;;;;;;;;;;517385;28;1279;-75
2023/02/26 01:09:25;;;;;;;6.05;2.55;;;;;;;;;;518097;28;1405;-75
2023/02/26 01:09:40;;;;;;;5.60;2.67;;;;;;;;;;518146;28;1413;-75
2023/02/26 01:09:56;;;;;;;4.90;2.60;;;;;;;;;;519906;28;1345;-75
2023/02/26 01:10:13;;;;;;;5.03;2.40;;;;;;;;;;517077;28;1406;-76
2023/02/26 01:10:29;;;;;;;5.57;2.65;;;;;;;;;;516673;28;1286;-76
2023/02/26 01:10:44;;;;;;;5.78;2.70;;;;;;;;;;515468;28;1295;-75
2023/02/26 01:11:00;;;;;;;6.23;2.80;;;;;;;;;;516423;28;1342;-75
2023/02/26 01:11:15;;;;;;;5.95;2.70;;;;;;;;;;517215;28;1083;-75
2023/02/26 01:11:34;;;;;;;5.85;2.70;;;;;;;;;;516879;28;1563;-75
2023/02/26 01:11:49;;;;;;;6.15;2.80;;;;;;;;;;519465;28;1231;-75
2023/02/26 01:12:09;;;;;;;5.23;2.70;;;;;;;;;;518597;28;1327;-75
2023/02/26 01:12:25;;;;;;;6.65;2.90;;;;;;;;;;518717;28;1427;-75
2023/02/26 01:12:41;;;;;;;7.13;2.97;;;;;;;;;;518917;28;1240;-75
2023/02/26 01:12:56;;;;;;;8.10;2.95;;;;;;;;;;516239;28;1233;-75
2023/02/26 01:13:12;;;;;;;6.95;2.95;;;;;;;;;;515383;28;1415;-75
2023/02/26 01:13:27;;;;;;;6.23;2.90;;;;;;;;;;515639;28;1381;-75
2023/02/26 01:13:43;;;;;;;7.47;2.78;;;;;;;;;;514523;28;1234;-75
2023/02/26 01:13:58;;;;;;;7.40;2.80;;;;;;;;;;517736;28;1234;-75
2023/02/26 01:14:14;;;;;;;6.35;2.65;;;;;;;;;;517755;28;1227;-75
2023/02/26 01:14:31;;;;;;;5.60;2.53;;;;;;;;;;517730;28;1435;-75
2023/02/26 01:14:48;;;;;;;5.68;2.75;;;;;;;;;;516141;28;1166;-75
2023/02/26 01:15:04;;;;;;;5.72;2.70;;;;;;;;;;515239;28;1560;-75
2023/02/26 01:15:20;;;;;;;5.60;2.67;;;;;;;;;;514427;28;1294;-75
2023/02/26 01:15:36;;;;;;;6.03;2.80;;;;;;;;;;516210;28;1383;-75
2023/02/26 01:15:57;;;;;;;6.53;2.73;;;;;;;;;;517301;28;1378;-77
2023/02/26 01:16:19;;;;;;;6.40;2.80;;;;;;;;;;517621;28;1255;-76
2023/02/26 01:16:48;;;;;;;6.88;2.80;;;;;;;;;;519338;28;1557;-76
2023/02/26 01:17:35;;;;;;;6.10;2.90;;;;;;;;;;517445;28;1302;-76
2023/02/26 01:17:54;;;;;;;5.78;2.60;;;;;;;;;;522841;28;1548;-75
2023/02/26 01:18:28;;;;;;;7.00;2.70;;;;;;;;;;521451;28;1192;-76
2023/02/26 01:18:51;;;;;;;6.10;2.80;;;;;;;;;;522647;28;1159;-75
2023/02/26 01:19:17;;;;;;;6.53;2.85;;;;;;;;;;519964;28;1378;-75
2023/02/26 01:19:44;;;;;;;6.88;2.70;;;;;;;;;;518816;28;1274;-76
2023/02/26 01:20:13;;;;;;;7.30;2.75;;;;;;;;;;517449;28;1338;-75
2023/02/26 01:20:51;;;;;;;6.38;2.78;;;;;;;;;;520507;28;1463;-76
2023/02/26 01:21:12;;;;;;;6.20;2.60;;;;;;;;;;514146;28;1255;-76
2023/02/26 01:21:34;;;;;;;5.93;2.53;;;;;;;;;;517669;28;1208;-76
2023/02/26 01:22:02;;;;;;;7.63;2.78;;;;;;;;;;519743;28;1240;-76
2023/02/26 01:22:39;;;;;;;6.82;2.80;;;;;;;;;;519414;28;1498;-76
2023/02/26 01:23:08;;;;;;;5.95;2.65;;;;;;;;;;517161;28;1311;-75
2023/02/26 01:23:25;;;;;;;5.97;2.60;;;;;;;;;;518485;28;1154;-75
2023/02/26 01:23:47;;;;;;;5.93;2.65;;;;;;;;;;519541;28;1452;-75
2023/02/26 01:24:05;;;;;;;6.28;2.70;;;;;;;;;;519036;28;1227;-75
2023/02/26 01:24:23;;;;;;;6.30;2.80;;;;;;;;;;519043;28;1398;-76
2023/02/26 01:24:40;;;;;;;7.30;2.78;;;;;;;;;;521822;28;1336;-76
2023/02/26 01:25:02;;;;;;;7.57;3.08;;;;;;;;;;520667;28;1393;-75
2023/02/26 01:25:29;;;;;;;6.68;2.92;;;;;;;;;;520903;28;1347;-75
2023/02/26 01:25:59;;;;;;;7.50;2.80;;;;;;;;;;521642;28;1488;-75
2023/02/26 01:26:22;;;;;;;6.20;2.70;;;;;;;;;;521866;28;1275;-75
2023/02/26 01:26:37;;;;;;;8.05;2.90;;;;;;;;;;520539;28;2079;-75
2023/02/26 01:26:53;;;;;;;6.63;2.67;;;;;;;;;;520095;28;1622;-75
2023/02/26 01:27:08;;;;;;;6.43;2.63;;;;;;;;;;520536;28;1330;-76
2023/02/26 01:27:24;;;;;;;6.67;2.80;;;;;;;;;;521148;28;1285;-76
2023/02/26 01:27:40;;;;;;;6.03;2.58;;;;;;;;;;519426;28;1516;-74
2023/02/26 01:27:56;;;;;;;5.57;2.58;;;;;;;;;;517375;28;1495;-75
2023/02/26 01:28:12;;;;;;;6.15;2.72;;;;;;;;;;514793;28;1572;-74
2023/02/26 01:28:27;;;;;;;6.15;2.60;;;;;;;;;;515868;28;1344;-74
2023/02/26 01:28:43;;;;;;;5.83;2.50;;;;;;;;;;514969;28;1301;-75
2023/02/26 01:28:58;;;;;;;6.53;2.60;;;;;;;;;;517553;28;1284;-75
2023/02/26 01:29:14;;;;;;;6.45;2.50;;;;;;;;;;515251;28;1357;-75
2023/02/26 01:29:30;;;;;;;6.60;2.50;;;;;;;;;;516437;28;1307;-75
2023/02/26 01:29:46;;;;;;;6.53;2.50;;;;;;;;;;518151;28;1345;-75
2023/02/26 01:30:02;;;;;;;6.40;2.50;;;;;;;;;;520507;28;1356;-75
2023/02/26 01:30:19;;;;;;;7.22;2.80;;;;;;;;;;521021;28;1420;-74
2023/02/26 01:30:35;;;;;;;6.65;2.70;;;;;;;;;;523651;28;1320;-75
2023/02/26 01:30:59;;;;;;;6.25;2.60;;;;;;;;;;519272;28;1336;-75
2023/02/26 01:31:39;;;;;;;5.93;2.58;;;;;;;;;;517101;28;1475;-75
2023/02/26 01:32:10;;;;;;;6.38;2.50;;;;;;;;;;516238;28;1180;-76
2023/02/26 01:32:37;;;;;;;7.53;2.78;;;;;;;;;;517496;28;1467;-75
2023/02/26 01:33:07;;;;;;;7.57;2.75;;;;;;;;;;520568;28;1302;-75
2023/02/26 01:33:34;;;;;;;7.43;2.60;;;;;;;;;;520694;28;1333;-76
2023/02/26 01:33:54;;;;;;;6.68;2.58;;;;;;;;;;519713;28;1307;-76
2023/02/26 01:34:35;;;;;;;6.68;2.60;;;;;;;;;;516982;28;1363;-76
2023/02/26 01:35:01;;;;;;;5.32;2.65;;;;;;;;;;517390;28;1252;-75
2023/02/26 01:35:30;;;;;;;6.63;2.40;;;;;;;;;;515900;28;1250;-75
2023/02/26 01:35:59;;;;;;;7.43;2.75;;;;;;;;;;518794;28;1568;-75
2023/02/26 01:36:20;;;;;;;6.72;2.60;;;;;;;;;;517898;28;1302;-75
2023/02/26 01:36:42;;;;;;;7.13;2.50;;;;;;;;;;518690;28;1654;-75
2023/02/26 01:37:22;;;;;;;5.75;2.58;;;;;;;;;;519830;28;1081;-75
2023/02/26 01:37:49;;;;;;;5.93;2.50;;;;;;;;;;514556;28;1332;-76
2023/02/26 01:38:30;;;;;;;6.22;2.70;;;;;;;;;;513495;28;1201;-76
2023/02/26 01:39:05;;;;;;;8.75;3.05;;;;;;;;;;518580;28;1572;-76
2023/02/26 01:39:30;;;;;;;7.30;2.88;;;;;;;;;;521059;28;1380;-75
2023/02/26 01:40:13;;;;;;;5.78;2.58;;;;;;;;;;519973;28;1449;-75
2023/02/26 01:40:33;;;;;;;6.28;2.50;;;;;;;;;;509006;28;1469;-75
2023/02/26 01:41:03;;;;;;;6.93;2.65;;;;;;;;;;522344;28;1326;-75
2023/02/26 01:41:37;;;;;;;7.07;2.80;;;;;;;;;;521358;28;1446;-75
2023/02/26 01:42:20;;;;;;;6.68;2.53;;;;;;;;;;522057;28;1420;-75
2023/02/26 01:42:38;;;;;;;7.05;2.65;;;;;;;;;;515422;28;1205;-75
2023/02/26 01:43:01;;;;;;;7.03;2.78;;;;;;;;;;523625;28;1220;-75
2023/02/26 01:43:26;;;;;;;6.47;2.72;;;;;;;;;;519434;28;1333;-75
2023/02/26 01:44:14;;;;;;;7.25;2.75;;;;;;;;;;518650;28;1106;-75
2023/02/26 01:44:38;;;;;;;6.38;2.50;;;;;;;;;;520057;28;1414;-75
2023/02/26 01:45:03;;;;;;;6.05;2.53;;;;;;;;;;519522;28;1518;-75
2023/02/26 01:45:33;;;;;;;6.00;2.50;;;;;;;;;;517605;28;1424;-75
2023/02/26 01:46:05;;;;;;;7.55;2.90;;;;;;;;;;518601;28;1466;-75
2023/02/26 01:46:45;;;;;;;6.05;2.50;;;;;;;;;;519794;28;1360;-75
2023/02/26 01:47:19;;;;;;;9.20;2.90;;;;;;;;;;518198;28;1457;-76
2023/02/26 01:47:59;;;;;;;6.05;2.67;;;;;;;;;;519939;28;1506;-75
2023/02/26 01:48:30;;;;;;;7.28;2.90;;;;;;;;;;520362;28;1296;-76
2023/02/26 01:48:56;;;;;;;6.82;2.60;;;;;;;;;;519589;28;1353;-76
2023/02/26 01:49:15;;;;;;;6.82;2.85;;;;;;;;;;521202;28;1472;-75
2023/02/26 01:49:31;;;;;;;7.88;2.85;;;;;;;;;;521627;28;1569;-75
2023/02/26 01:49:47;;;;;;;7.80;2.80;;;;;;;;;;519043;28;1260;-74
2023/02/26 01:50:16;;;;;;;6.75;2.90;;;;;;;;;;517484;28;1113;-75
2023/02/26 01:50:34;;;;;;;5.85;2.63;;;;;;;;;;517156;28;1460;-75
2023/02/26 01:50:50;;;;;;;5.90;2.60;;;;;;;;;;515080;28;1387;-75
2023/02/26 01:51:05;;;;;;;6.03;2.77;;;;;;;;;;516574;28;1295;-75
2023/02/26 01:51:40;;;;;;;6.43;2.70;;;;;;;;;;517316;28;1529;-75
2023/02/26 01:52:01;;;;;;;6.03;2.58;;;;;;;;;;520430;28;1379;-75
2023/02/26 01:52:48;;;;;;;6.20;2.72;;;;;;;;;;518715;28;1433;-75
2023/02/26 01:53:24;;;;;;;5.85;2.70;;;;;;;;;;515261;28;1456;-76
2023/02/26 01:53:39;;;;;;;6.00;2.95;;;;;;;;;;516715;28;1282;-75
2023/02/26 01:53:55;;;;;;;7.17;2.90;;;;;;;;;;517525;28;1250;-76
2023/02/26 01:54:11;;;;;;;7.03;2.80;;;;;;;;;;518355;28;1314;-75
2023/02/26 01:54:37;;;;;;;6.55;2.83;;;;;;;;;;518522;28;1365;-75
2023/02/26 01:54:52;;;;;;;6.13;2.60;;;;;;;;;;517464;28;1283;-75
2023/02/26 01:55:07;;;;;;;5.73;2.60;;;;;;;;;;518935;28;1308;-75
2023/02/26 01:55:26;;;;;;;6.70;2.90;;;;;;;;;;521772;28;1212;-75
2023/02/26 01:55:43;;;;;;;7.25;2.95;;;;;;;;;;516367;28;1274;-75
2023/02/26 01:56:05;;;;;;;6.53;2.80;;;;;;;;;;518008;28;1243;-75
2023/02/26 01:56:20;;;;;;;7.13;2.85;;;;;;;;;;515994;28;1394;-76
2023/02/26 01:56:36;;;;;;;6.17;2.90;;;;;;;;;;515732;28;1519;-75
2023/02/26 01:57:08;;;;;;;6.88;2.97;;;;;;;;;;517516;28;1306;-75
2023/02/26 01:57:24;;;;;;;6.15;2.72;;;;;;;;;;519808;28;1337;-75
2023/02/26 01:57:39;;;;;;;5.88;3.00;;;;;;;;;;521450;28;1414;-75
2023/02/26 01:57:57;;;;;;;6.25;2.90;;;;;;;;;;519250;28;1264;-75
2023/02/26 01:58:13;;;;;;;6.40;2.80;;;;;;;;;;515907;28;1405;-75
2023/02/26 01:58:32;;;;;;;6.97;2.97;;;;;;;;;;513748;28;1127;-76
2023/02/26 01:58:49;;;;;;;6.53;2.80;;;;;;;;;;519069;28;1379;-75
2023/02/26 01:59:07;;;;;;;6.35;2.63;;;;;;;;;;518888;28;1401;-76
2023/02/26 01:59:25;;;;;;;7.05;2.50;;;;;;;;;;518860;28;1370;-76
2023/02/26 01:59:45;;;;;;;7.20;2.70;;;;;;;;;;519131;28;1307;-76
2023/02/26 02:00:00;;;;;;;8.63;2.88;;;;;;;;;;519255;28;1510;-76
2023/02/26 02:00:17;;;;;;;6.90;2.90;;;;;;;;;;519283;28;1353;-75
2023/02/26 02:00:32;;;;;;;5.85;2.70;;;;;;;;;;517391;28;1306;-75
2023/02/26 02:00:48;;;;;;;6.45;2.80;;;;;;;;;;517747;28;1575;-75
2023/02/26 02:01:03;;;;;;;5.88;2.72;;;;;;;;;;516221;28;1441;-74
2023/02/26 02:01:19;;;;;;;5.70;2.80;;;;;;;;;;519618;28;1300;-75
2023/02/26 02:01:38;;;;;;;6.35;2.83;;;;;;;;;;517592;28;1446;-75
2023/02/26 02:01:55;;;;;;;7.63;2.70;;;;;;;;;;516794;28;1429;-75
2023/02/26 02:02:13;;;;;;;8.27;3.03;;;;;;;;;;516296;28;1103;-75
2023/02/26 02:02:29;;;;;;;6.76;2.90;;;;;;;;;;517473;28;1617;-75
2023/02/26 02:02:45;;;;;;;6.73;2.70;;;;;;;;;;517106;28;1201;-75